Mr. Nelson — WDE7778 — position and weather

sailwx.info

Track history (hours):
 
Tides and Currents Weather Stations Pressure Air Temp Water Temp Dewpoint Dewpoint Depression Visibility Wind Speed Wind Dir Waves Ship Positions

Mr. Nelson

Owner: A C MARINE, INC., CUT OFF, LA. More information available from US FCC via Universal Licensing System and Coast Guard Vessel Documentation Center.

Last reported at 2017-Sep-01 09:56 UTC. Time now 2017-Sep-21 12:27 UTC.
Position N 29°22' W 090°44'.
Warning: this ship's position is 20 days out of date.

Type: Towing. MMSI: 367397510.

Date/timePositionNaut miles runAvg speedWind from/ knotsBaromVisibWave heightAir tempDewpointWater temp
2017-Sep-01 09:56N 29°22' W 090°44'3 7.1
2017-Sep-01 09:30N 29°25' W 090°43'4 7.1
2017-Sep-01 09:00N 29°29' W 090°43'3 7.0
2017-Sep-01 08:30N 29°32' W 090°42'3 5.1
2017-Sep-01 08:00N 29°34' W 090°43'2 4.6
2017-Sep-01 07:30N 29°37' W 090°42'3 5.3
2017-Sep-01 07:00N 29°36' W 090°39'2 3.3
2017-Sep-01 06:30N 29°35' W 090°38'2 3.6
2017-Sep-01 06:00N 29°35' W 090°36'0 0.1
2017-Sep-01 05:30N 29°35' W 090°36'3 6.2
2017-Sep-01 05:00N 29°36' W 090°39'3 6.1
2017-Sep-01 04:30N 29°37' W 090°42'3 5.5
2017-Sep-01 04:00N 29°34' W 090°43'3 6.5
2017-Sep-01 03:30N 29°31' W 090°43'3 6.8
2017-Sep-01 03:00N 29°27' W 090°43'1 0.2
2017-Aug-31 21:59N 29°26' W 090°43'3 5.9
2017-Aug-31 21:29N 29°29' W 090°43'3 5.7
2017-Aug-31 21:00N 29°32' W 090°42'3 5.0
2017-Aug-31 20:30N 29°34' W 090°43'2 3.9
2017-Aug-31 20:00N 29°33' W 090°45'3 5.4
2017-Aug-31 19:30N 29°32' W 090°48'  
2017-Aug-26 08:08N 29°36' W 090°58'2 4.1
2017-Aug-26 07:42N 29°34' W 090°57'1 4.3
2017-Aug-26 07:29N 29°34' W 090°56'2 4.3
2017-Aug-26 06:58N 29°33' W 090°54'2 4.3
2017-Aug-26 06:27N 29°32' W 090°51'2 4.4
2017-Aug-26 06:00N 29°32' W 090°49'2 4.3
2017-Aug-26 05:31N 29°32' W 090°46'2 3.9
2017-Aug-26 05:00N 29°34' W 090°45'2 3.6
2017-Aug-26 04:30N 29°34' W 090°43'2 3.8
2017-Aug-26 04:00N 29°32' W 090°42'2 4.2
2017-Aug-26 03:31N 29°30' W 090°43'2 4.7
2017-Aug-26 03:00N 29°28' W 090°43'2 4.7
2017-Aug-26 02:31N 29°26' W 090°43'  
2017-Aug-23 15:24N 29°23' W 090°44'3 8.0
2017-Aug-23 15:00N 29°26' W 090°43'8 7.9
2017-Aug-23 14:00N 29°34' W 090°43'2 4.5
2017-Aug-23 13:30N 29°36' W 090°43'2 4.8
2017-Aug-23 13:00N 29°36' W 090°40'0 0.1
2017-Aug-23 12:30N 29°36' W 090°40'3 6.1
2017-Aug-23 12:00N 29°35' W 090°37'1 1.8
2017-Aug-23 11:29N 29°35' W 090°36'0 0.1
2017-Aug-23 11:00N 29°35' W 090°36'2 3.8
2017-Aug-23 10:30N 29°35' W 090°38'3 6.5
2017-Aug-23 10:00N 29°37' W 090°41'2 4.1
2017-Aug-23 09:30N 29°35' W 090°43'3 5.3
2017-Aug-23 09:00N 29°32' W 090°42'4 7.1
2017-Aug-23 08:30N 29°29' W 090°43'4 7.1
2017-Aug-23 07:58N 29°25' W 090°43'  
Track history (hours):
 
Tides and Currents Weather Stations Pressure Air Temp Water Temp Dewpoint Dewpoint Depression Visibility Wind Speed Wind Dir Waves Ship Positions

Mr. Nelson

Owner: A C MARINE, INC., CUT OFF, LA. More information available from US FCC via Universal Licensing System and Coast Guard Vessel Documentation Center.

Last reported at 2017-Sep-01 09:56 UTC. Time now 2017-Sep-21 12:27 UTC.
Position N 29°22' W 090°44'.
Warning: this ship's position is 20 days out of date.

Type: Towing. MMSI: 367397510.

Date/timePositionNaut miles runAvg speedWind from/ knotsBaromVisibWave heightAir tempDewpointWater temp
2017-Sep-01 09:56N 29°22' W 090°44'3 7.1
2017-Sep-01 09:30N 29°25' W 090°43'4 7.1
2017-Sep-01 09:00N 29°29' W 090°43'3 7.0
2017-Sep-01 08:30N 29°32' W 090°42'3 5.1
2017-Sep-01 08:00N 29°34' W 090°43'2 4.6
2017-Sep-01 07:30N 29°37' W 090°42'3 5.3
2017-Sep-01 07:00N 29°36' W 090°39'2 3.3
2017-Sep-01 06:30N 29°35' W 090°38'2 3.6
2017-Sep-01 06:00N 29°35' W 090°36'0 0.1
2017-Sep-01 05:30N 29°35' W 090°36'3 6.2
2017-Sep-01 05:00N 29°36' W 090°39'3 6.1
2017-Sep-01 04:30N 29°37' W 090°42'3 5.5
2017-Sep-01 04:00N 29°34' W 090°43'3 6.5
2017-Sep-01 03:30N 29°31' W 090°43'3 6.8
2017-Sep-01 03:00N 29°27' W 090°43'1 0.2
2017-Aug-31 21:59N 29°26' W 090°43'3 5.9
2017-Aug-31 21:29N 29°29' W 090°43'3 5.7
2017-Aug-31 21:00N 29°32' W 090°42'3 5.0
2017-Aug-31 20:30N 29°34' W 090°43'2 3.9
2017-Aug-31 20:00N 29°33' W 090°45'3 5.4
2017-Aug-31 19:30N 29°32' W 090°48'  
2017-Aug-26 08:08N 29°36' W 090°58'2 4.1
2017-Aug-26 07:42N 29°34' W 090°57'1 4.3
2017-Aug-26 07:29N 29°34' W 090°56'2 4.3
2017-Aug-26 06:58N 29°33' W 090°54'2 4.3
2017-Aug-26 06:27N 29°32' W 090°51'2 4.4
2017-Aug-26 06:00N 29°32' W 090°49'2 4.3
2017-Aug-26 05:31N 29°32' W 090°46'2 3.9
2017-Aug-26 05:00N 29°34' W 090°45'2 3.6
2017-Aug-26 04:30N 29°34' W 090°43'2 3.8
2017-Aug-26 04:00N 29°32' W 090°42'2 4.2
2017-Aug-26 03:31N 29°30' W 090°43'2 4.7
2017-Aug-26 03:00N 29°28' W 090°43'2 4.7
2017-Aug-26 02:31N 29°26' W 090°43'  
2017-Aug-23 15:24N 29°23' W 090°44'3 8.0
2017-Aug-23 15:00N 29°26' W 090°43'8 7.9
2017-Aug-23 14:00N 29°34' W 090°43'2 4.5
2017-Aug-23 13:30N 29°36' W 090°43'2 4.8
2017-Aug-23 13:00N 29°36' W 090°40'0 0.1
2017-Aug-23 12:30N 29°36' W 090°40'3 6.1
2017-Aug-23 12:00N 29°35' W 090°37'1 1.8
2017-Aug-23 11:29N 29°35' W 090°36'0 0.1
2017-Aug-23 11:00N 29°35' W 090°36'2 3.8
2017-Aug-23 10:30N 29°35' W 090°38'3 6.5
2017-Aug-23 10:00N 29°37' W 090°41'2 4.1
2017-Aug-23 09:30N 29°35' W 090°43'3 5.3
2017-Aug-23 09:00N 29°32' W 090°42'4 7.1
2017-Aug-23 08:30N 29°29' W 090°43'4 7.1
2017-Aug-23 07:58N 29°25' W 090°43'  

Dump ship's entire track history